Time;durP1;ratioP1;P1;durP2;ratioP2;P2;SDS_P1;SDS_P2;PMS_P1;PMS_P2;Temp;Humidity;BMP_temperature;BMP_pressure;BME280_temperature;BME280_humidity;BME280_pressure;Samples;Min_cycle;Max_cycle;Signal;HPM_P1;HPM_P2
2021/04/21 00:01:18;;;;;;;14.57;8.10;;;11.90;61.80;;;;;;5073251;28;20036;-78
2021/04/21 00:03:44;;;;;;;13.97;8.43;;;11.90;62.10;;;;;;5055621;28;20188;-78
2021/04/21 00:06:14;;;;;;;13.57;8.37;;;11.80;62.10;;;;;;5073068;28;20043;-78
2021/04/21 00:08:40;;;;;;;14.20;8.57;;;11.80;62.30;;;;;;5073091;28;20074;-77
2021/04/21 00:11:06;;;;;;;15.67;8.70;;;11.80;62.90;;;;;;5023976;28;20423;-78
2021/04/21 00:13:33;;;;;;;15.97;9.53;;;11.60;62.80;;;;;;5051312;28;20083;-78
2021/04/21 00:15:59;;;;;;;11.10;7.73;;;11.50;62.90;;;;;;5035759;28;20067;-78
2021/04/21 00:18:26;;;;;;;14.37;8.57;;;11.40;63.00;;;;;;5035369;28;20024;-78
2021/04/21 00:20:56;;;;;;;15.70;8.93;;;11.30;63.30;;;;;;5035242;28;20053;-78
2021/04/21 00:23:23;;;;;;;13.73;8.80;;;11.20;63.80;;;;;;5053000;28;20021;-78
2021/04/21 00:25:53;;;;;;;15.07;9.30;;;11.20;64.20;;;;;;5054674;28;20376;-71
2021/04/21 00:28:22;;;;;;;17.43;9.77;;;11.10;64.60;;;;;;5073516;28;20109;-71
2021/04/21 00:30:49;;;;;;;16.40;9.93;;;10.90;65.70;;;;;;5073329;28;20418;-71
2021/04/21 00:33:17;;;;;;;17.87;9.47;;;10.80;65.20;;;;;;5073167;28;20032;-71
2021/04/21 00:35:45;;;;;;;15.27;9.13;;;10.70;65.40;;;;;;5055243;28;20025;-71
2021/04/21 00:38:17;;;;;;;19.10;10.10;;;10.70;65.60;;;;;;5073238;28;20024;-71
2021/04/21 00:40:51;;;;;;;15.57;9.70;;;10.60;65.90;;;;;;5073440;28;20021;-71
2021/04/21 00:43:48;;;;;;;13.87;9.17;;;10.50;66.20;;;;;;5054858;28;20153;-78
2021/04/21 00:46:31;;;;;;;16.80;9.80;;;10.50;66.00;;;;;;5054160;28;20415;-78
2021/04/21 00:49:36;;;;;;;15.87;9.03;;;10.40;66.10;;;;;;5072755;28;20021;-79
2021/04/21 00:52:12;;;;;;;17.40;9.80;;;10.40;66.20;;;;;;5044004;28;20490;-78
2021/04/21 00:54:55;;;;;;;19.40;10.13;;;10.30;66.20;;;;;;5072705;28;20099;-78
2021/04/21 00:57:28;;;;;;;15.80;9.65;;;10.30;66.30;;;;;;5054750;28;20029;-78
2021/04/21 01:00:13;;;;;;;19.27;11.57;;;10.30;66.40;;;;;;5072472;28;20032;-78
2021/04/21 01:02:56;;;;;;;17.63;10.53;;;10.30;66.50;;;;;;5072804;28;20029;-78
2021/04/21 01:05:26;;;;;;;17.67;10.23;;;10.20;66.60;;;;;;5054768;28;20023;-78
2021/04/21 01:07:56;;;;;;;19.07;10.67;;;10.20;66.80;;;;;;5054634;28;20052;-78
2021/04/21 01:10:23;;;;;;;20.77;11.60;;;10.20;67.10;;;;;;5072594;28;20025;-78
2021/04/21 01:12:51;;;;;;;21.90;11.87;;;10.20;67.30;;;;;;5072717;28;20020;-78
2021/04/21 01:15:18;;;;;;;19.50;12.30;;;10.10;67.60;;;;;;5054574;28;20070;-78
2021/04/21 01:17:47;;;;;;;20.50;13.83;;;10.10;67.90;;;;;;5037126;28;20070;-78
2021/04/21 01:20:27;;;;;;;21.70;12.70;;;10.00;68.20;;;;;;5072620;28;20037;-78
2021/04/21 01:23:20;;;;;;;21.53;13.43;;;10.00;68.40;;;;;;5072774;28;20388;-78
2021/04/21 01:25:51;;;;;;;19.97;12.63;;;10.00;69.30;;;;;;5050492;28;20033;-78
2021/04/21 01:28:26;;;;;;;20.60;13.03;;;10.00;68.60;;;;;;5057846;28;20029;-71
2021/04/21 01:30:54;;;;;;;23.53;13.33;;;9.90;68.70;;;;;;5057901;28;20025;-71
2021/04/21 01:33:23;;;;;;;18.07;12.80;;;9.90;69.00;;;;;;5075540;28;20119;-71
2021/04/21 01:36:00;;;;;;;20.97;13.23;;;9.90;69.10;;;;;;5076337;28;20098;-71
2021/04/21 01:38:27;;;;;;;19.50;12.67;;;9.90;69.30;;;;;;5075866;28;20020;-71
2021/04/21 01:40:57;;;;;;;20.57;13.03;;;9.90;69.50;;;;;;5075753;28;20364;-71
2021/04/21 01:43:36;;;;;;;18.83;11.37;;;9.80;69.60;;;;;;5057941;28;20472;-71
2021/04/21 01:46:04;;;;;;;20.30;12.47;;;9.80;69.80;;;;;;5075575;28;20074;-70
2021/04/21 01:48:34;;;;;;;19.10;11.73;;;9.90;70.00;;;;;;5075680;28;20479;-72
2021/04/21 01:51:06;;;;;;;22.77;13.50;;;9.80;70.10;;;;;;5075738;28;20428;-72
2021/04/21 01:53:39;;;;;;;20.50;13.70;;;9.80;70.50;;;;;;5075960;28;20104;-72
2021/04/21 01:56:20;;;;;;;21.95;12.35;;;9.80;70.50;;;;;;5075530;28;20513;-71
2021/04/21 01:59:06;;;;;;;23.67;13.83;;;9.80;70.50;;;;;;5075375;28;20112;-71
2021/04/21 02:01:56;;;;;;;22.30;13.57;;;9.80;70.70;;;;;;5075243;28;20052;-71
2021/04/21 02:04:52;;;;;;;23.33;14.97;;;9.70;70.80;;;;;;5075006;28;20020;-71
2021/04/21 02:07:32;;;;;;;23.80;13.63;;;9.70;71.20;;;;;;5075257;28;20036;-71
2021/04/21 02:10:25;;;;;;;22.80;14.23;;;9.70;71.20;;;;;;5075287;28;20499;-71
2021/04/21 02:13:14;;;;;;;23.60;13.60;;;9.60;71.40;;;;;;5057335;28;20464;-71
2021/04/21 02:15:54;;;;;;;24.83;14.20;;;9.70;71.70;;;;;;5057028;28;20056;-71
2021/04/21 02:18:57;;;;;;;25.43;15.73;;;9.60;71.80;;;;;;5075100;28;20024;-71
2021/04/21 02:21:39;;;;;;;22.57;14.13;;;9.60;72.10;;;;;;5056962;28;20174;-78
2021/04/21 02:24:29;;;;;;;24.10;15.17;;;9.60;72.20;;;;;;5074689;28;20036;-78
2021/04/21 02:27:13;;;;;;;23.23;15.20;;;9.60;72.60;;;;;;5074934;28;20028;-78
2021/04/21 02:29:55;;;;;;;24.15;15.98;;;9.50;72.60;;;;;;5075203;28;20078;-79
2021/04/21 02:32:32;;;;;;;22.47;14.33;;;9.50;72.70;;;;;;5074763;28;20055;-78
2021/04/21 02:35:01;;;;;;;23.20;15.40;;;9.50;72.90;;;;;;5056143;28;20432;-79
2021/04/21 02:38:08;;;;;;;25.03;15.70;;;9.50;72.90;;;;;;5056476;28;20451;-79
2021/04/21 02:41:01;;;;;;;27.17;16.80;;;9.50;73.30;;;;;;5074375;28;20177;-79
2021/04/21 02:43:42;;;;;;;25.83;16.77;;;9.50;73.30;;;;;;5056749;28;20036;-78
2021/04/21 02:46:29;;;;;;;25.50;15.60;;;9.50;73.40;;;;;;5074718;28;20513;-79
2021/04/21 02:49:34;;;;;;;23.20;14.47;;;9.50;73.60;;;;;;5056944;28;20044;-79
2021/04/21 02:52:32;;;;;;;27.33;14.95;;;9.50;73.70;;;;;;5070711;28;20043;-79
2021/04/21 02:55:24;;;;;;;23.83;16.10;;;9.50;73.80;;;;;;5053014;28;20036;-78
2021/04/21 02:58:01;;;;;;;25.57;15.53;;;9.60;74.10;;;;;;5056137;28;20476;-79
2021/04/21 03:00:29;;;;;;;25.07;17.03;;;9.60;74.10;;;;;;5056418;28;20021;-78
2021/04/21 03:02:54;;;;;;;25.87;15.47;;;9.60;74.20;;;;;;5056384;28;20025;-79
2021/04/21 03:05:27;;;;;;;25.10;16.57;;;9.60;74.40;;;;;;5074265;28;20028;-79
2021/04/21 03:08:03;;;;;;;22.90;15.65;;;9.60;74.60;;;;;;5074050;28;20060;-79
2021/04/21 03:10:35;;;;;;;24.43;14.93;;;9.60;74.70;;;;;;5073931;28;20099;-79
2021/04/21 03:13:19;;;;;;;22.30;15.73;;;9.60;74.60;;;;;;5056207;28;20383;-79
2021/04/21 03:15:50;;;;;;;23.57;15.43;;;9.60;74.80;;;;;;5074349;28;20025;-79
2021/04/21 03:18:20;;;;;;;24.43;16.80;;;9.60;74.80;;;;;;5074228;28;20029;-79
2021/04/21 03:21:09;;;;;;;25.17;15.33;;;9.60;75.00;;;;;;5073791;28;20035;-79
2021/04/21 03:23:39;;;;;;;24.67;15.73;;;9.70;75.10;;;;;;5064196;28;20036;-71
2021/04/21 03:26:06;;;;;;;26.00;16.73;;;9.60;75.20;;;;;;5072444;28;20033;-71
2021/04/21 03:28:35;;;;;;;29.73;18.37;;;9.70;75.20;;;;;;5072459;28;20033;-71
2021/04/21 03:31:03;;;;;;;23.83;15.80;;;9.80;75.40;;;;;;5055324;28;20040;-71
2021/04/21 03:33:49;;;;;;;26.80;18.13;;;9.80;75.60;;;;;;5072607;28;20025;-71
2021/04/21 03:36:18;;;;;;;26.13;16.90;;;9.80;75.50;;;;;;5073754;28;20452;-70
2021/04/21 03:38:46;;;;;;;28.07;17.93;;;9.90;75.80;;;;;;5073983;28;20020;-71
2021/04/21 03:41:12;;;;;;;26.43;17.73;;;9.80;75.80;;;;;;5073148;28;20020;-79
2021/04/21 03:43:39;;;;;;;28.00;18.20;;;9.90;75.70;;;;;;5055232;28;20029;-79
2021/04/21 03:46:06;;;;;;;24.47;16.70;;;9.80;75.80;;;;;;5072999;28;20107;-78
2021/04/21 03:48:34;;;;;;;24.70;16.90;;;9.70;75.80;;;;;;5055297;28;20028;-78
2021/04/21 03:51:00;;;;;;;25.63;17.10;;;9.80;75.80;;;;;;5055548;28;20031;-79
2021/04/21 03:53:30;;;;;;;27.57;18.53;;;9.80;75.80;;;;;;5055422;28;20103;-78
2021/04/21 03:55:56;;;;;;;29.60;17.43;;;9.90;75.80;;;;;;5055388;28;20119;-78
2021/04/21 03:58:25;;;;;;;28.27;18.50;;;9.90;75.80;;;;;;5055188;28;20063;-78
2021/04/21 04:01:00;;;;;;;29.20;18.67;;;9.80;75.90;;;;;;5072009;28;20032;-79
2021/04/21 04:03:31;;;;;;;25.77;17.13;;;9.80;75.90;;;;;;5073258;28;20387;-78
2021/04/21 04:06:20;;;;;;;27.73;19.80;;;9.80;76.00;;;;;;5073379;28;20024;-78
2021/04/21 04:09:01;;;;;;;28.50;20.07;;;9.70;76.10;;;;;;5055215;28;20039;-71
2021/04/21 04:11:34;;;;;;;28.80;20.53;;;9.70;76.20;;;;;;5073002;28;20032;-71
2021/04/21 04:14:14;;;;;;;28.97;19.63;;;9.60;76.20;;;;;;5055271;28;20030;-71
2021/04/21 04:16:42;;;;;;;28.07;18.67;;;9.60;76.20;;;;;;5072291;28;20116;-71
2021/04/21 04:19:11;;;;;;;28.47;20.13;;;9.50;76.40;;;;;;5073197;28;20036;-72
2021/04/21 04:21:38;;;;;;;29.13;21.87;;;9.50;76.50;;;;;;5073296;28;20476;-71
2021/04/21 04:24:25;;;;;;;31.20;21.23;;;9.40;76.90;;;;;;5073053;28;20545;-71
2021/04/21 04:26:53;;;;;;;34.77;21.87;;;9.40;77.20;;;;;;5073006;28;20461;-71
2021/04/21 04:29:20;;;;;;;35.90;23.90;;;9.30;77.20;;;;;;5073313;28;20373;-71
2021/04/21 04:31:47;;;;;;;30.20;21.67;;;9.30;77.20;;;;;;5079225;28;20031;-71
2021/04/21 04:34:16;;;;;;;30.53;21.97;;;9.30;77.40;;;;;;5073871;28;20056;-71
2021/04/21 04:36:42;;;;;;;36.40;22.90;;;9.20;77.60;;;;;;5073017;28;20463;-71
2021/04/21 04:39:09;;;;;;;36.70;23.40;;;9.10;77.60;;;;;;5054991;28;20048;-71
2021/04/21 04:41:36;;;;;;;31.47;22.60;;;9.10;78.20;;;;;;5073071;28;20375;-71
2021/04/21 04:44:03;;;;;;;33.60;24.40;;;9.10;78.00;;;;;;5073086;28;20033;-71
2021/04/21 04:46:33;;;;;;;33.93;23.63;;;9.10;78.20;;;;;;5073049;28;20068;-71
2021/04/21 04:49:05;;;;;;;35.43;24.33;;;9.00;78.00;;;;;;5047564;28;20368;-71
2021/04/21 04:51:34;;;;;;;32.67;23.27;;;9.00;78.50;;;;;;5062564;28;20029;-71
2021/04/21 04:54:03;;;;;;;34.10;24.17;;;9.00;78.20;;;;;;5062743;28;20036;-71
2021/04/21 04:56:33;;;;;;;33.23;23.87;;;9.00;78.40;;;;;;5056756;28;20047;-71
2021/04/21 04:59:03;;;;;;;32.83;24.23;;;8.90;78.70;;;;;;5063772;28;20504;-71
2021/04/21 05:01:43;;;;;;;32.20;23.77;;;8.90;78.70;;;;;;5066710;28;20364;-71
2021/04/21 05:04:13;;;;;;;33.20;24.10;;;8.90;78.70;;;;;;5069874;28;20025;-71
2021/04/21 05:06:48;;;;;;;40.13;25.70;;;8.80;78.80;;;;;;5070847;28;20043;-71
2021/04/21 05:09:17;;;;;;;34.43;24.03;;;8.80;79.00;;;;;;5075402;28;20032;-71
2021/04/21 05:11:45;;;;;;;38.80;24.83;;;8.80;79.10;;;;;;5076381;28;20018;-71
2021/04/21 05:14:16;;;;;;;35.80;26.33;;;8.80;79.20;;;;;;5059083;28;20036;-71
2021/04/21 05:16:56;;;;;;;36.27;25.23;;;8.70;79.40;;;;;;5076426;28;20029;-71
2021/04/21 05:20:00;;;;;;;37.00;25.37;;;8.90;79.60;;;;;;5075928;28;20107;-71
2021/04/21 05:22:44;;;;;;;34.07;24.50;;;8.80;79.70;;;;;;5057663;28;20082;-71
2021/04/21 05:25:43;;;;;;;33.05;24.70;;;8.80;79.60;;;;;;5076219;28;20024;-79
2021/04/21 05:28:17;;;;;;;34.20;25.10;;;8.80;79.70;;;;;;5056337;28;20048;-78
2021/04/21 05:30:49;;;;;;;34.93;25.90;;;8.80;79.80;;;;;;5044137;28;20484;-78
2021/04/21 05:33:40;;;;;;;39.93;26.60;;;8.80;79.90;;;;;;5074906;28;20064;-78
2021/04/21 05:36:43;;;;;;;34.03;23.83;;;8.80;80.00;;;;;;5058066;28;20024;-78
2021/04/21 05:39:27;;;;;;;35.87;26.13;;;8.80;80.10;;;;;;5075659;28;20430;-78
2021/04/21 05:42:14;;;;;;;32.60;23.63;;;8.80;80.40;;;;;;5075765;28;20036;-78
2021/04/21 05:45:03;;;;;;;36.67;25.93;;;8.90;80.40;;;;;;5076069;28;20082;-78
2021/04/21 05:47:50;;;;;;;39.33;25.90;;;8.90;80.70;;;;;;5075799;28;20480;-78
2021/04/21 05:50:35;;;;;;;34.60;24.50;;;8.90;80.70;;;;;;5075367;28;20025;-78
2021/04/21 05:53:42;;;;;;;34.67;25.27;;;9.00;80.90;;;;;;5075483;28;20017;-78
2021/04/21 05:56:35;;;;;;;30.70;23.50;;;9.00;81.00;;;;;;5076764;28;20017;-78
2021/04/21 05:59:22;;;;;;;33.00;22.93;;;9.10;81.00;;;;;;5056522;28;20033;-70
2021/04/21 06:01:49;;;;;;;31.47;24.27;;;9.20;81.20;;;;;;5056723;28;20033;-71
2021/04/21 06:04:16;;;;;;;31.07;23.90;;;9.30;81.40;;;;;;5056662;28;20044;-70
2021/04/21 06:06:41;;;;;;;30.17;22.97;;;9.40;81.30;;;;;;5075083;28;20040;-70
2021/04/21 06:09:09;;;;;;;29.20;21.37;;;9.50;81.20;;;;;;5074469;28;20370;-70
2021/04/21 06:11:36;;;;;;;31.83;21.63;;;9.50;80.90;;;;;;5055883;28;20025;-71
2021/04/21 06:14:04;;;;;;;28.57;21.03;;;9.60;80.80;;;;;;5057536;28;20036;-71
2021/04/21 06:16:32;;;;;;;30.73;22.73;;;9.80;80.70;;;;;;5084499;28;20036;-70
2021/04/21 06:19:00;;;;;;;29.60;21.03;;;9.80;80.40;;;;;;5056368;28;20024;-70
2021/04/21 06:21:28;;;;;;;30.70;21.37;;;9.80;80.60;;;;;;5057545;28;20090;-71
2021/04/21 06:23:54;;;;;;;28.47;21.57;;;9.80;79.70;;;;;;5074943;28;20025;-70
2021/04/21 06:26:30;;;;;;;26.60;19.10;;;9.90;79.50;;;;;;5073809;28;20369;-70
2021/04/21 06:29:08;;;;;;;26.53;19.70;;;9.80;79.20;;;;;;5072620;28;20064;-72
2021/04/21 06:31:42;;;;;;;27.23;19.27;;;9.90;79.00;;;;;;5074975;28;20059;-71
2021/04/21 06:34:08;;;;;;;26.48;18.40;;;9.90;78.80;;;;;;5074274;28;20063;-72
2021/04/21 06:36:38;;;;;;;24.40;18.23;;;10.00;78.70;;;;;;5074739;28;20038;-72
2021/04/21 06:39:04;;;;;;;26.47;18.33;;;10.00;78.50;;;;;;5074282;28;20077;-72
2021/04/21 06:41:30;;;;;;;26.50;18.97;;;10.10;78.40;;;;;;5074451;28;20113;-72
2021/04/21 06:43:57;;;;;;;26.03;18.67;;;10.10;78.20;;;;;;5074551;28;20084;-72
2021/04/21 06:46:23;;;;;;;24.67;17.40;;;10.20;78.60;;;;;;5056091;28;20029;-72
2021/04/21 06:48:54;;;;;;;28.83;18.37;;;10.20;77.70;;;;;;5074680;28;20081;-72
2021/04/21 06:51:21;;;;;;;28.73;19.40;;;10.20;77.70;;;;;;5074470;28;20021;-71
2021/04/21 06:53:48;;;;;;;27.63;19.73;;;10.30;77.70;;;;;;5074266;28;20027;-72
2021/04/21 06:56:15;;;;;;;28.17;19.43;;;10.40;77.90;;;;;;5056694;28;20025;-72
2021/04/21 06:58:41;;;;;;;28.60;20.13;;;10.40;78.00;;;;;;5074150;28;20070;-72
2021/04/21 07:01:11;;;;;;;24.43;17.30;;;10.40;77.50;;;;;;5074277;28;20024;-71
2021/04/21 07:03:37;;;;;;;24.60;18.47;;;10.50;77.30;;;;;;5074076;28;20032;-71
2021/04/21 07:06:03;;;;;;;27.27;17.70;;;10.50;77.10;;;;;;5055853;28;20021;-71
2021/04/21 07:08:34;;;;;;;27.50;19.23;;;10.50;76.90;;;;;;5056023;28;20029;-72
2021/04/21 07:11:02;;;;;;;25.93;18.20;;;10.60;76.70;;;;;;5073820;28;20027;-72
2021/04/21 07:13:30;;;;;;;26.63;18.27;;;10.70;76.50;;;;;;5074130;28;20013;-72
2021/04/21 07:15:59;;;;;;;25.37;17.30;;;10.70;76.00;;;;;;5074195;28;20020;-72
2021/04/21 07:18:33;;;;;;;31.07;17.03;;;10.80;75.50;;;;;;5073740;28;20032;-71
2021/04/21 07:21:01;;;;;;;25.77;16.53;;;10.80;75.40;;;;;;5073179;28;20541;-72
2021/04/21 07:23:28;;;;;;;23.80;17.03;;;10.80;75.00;;;;;;5074091;28;20387;-72
2021/04/21 07:25:55;;;;;;;24.70;16.70;;;10.90;74.90;;;;;;5055936;28;20025;-72
2021/04/21 07:28:22;;;;;;;28.83;17.43;;;11.00;74.80;;;;;;5073714;28;20063;-71
2021/04/21 07:30:53;;;;;;;27.70;18.63;;;11.00;74.80;;;;;;5074414;28;20027;-71
2021/04/21 07:33:37;;;;;;;26.57;19.07;;;11.10;74.70;;;;;;5055787;28;20019;-71
2021/04/21 07:36:13;;;;;;;26.90;18.35;;;11.10;74.30;;;;;;5056056;28;20067;-72
2021/04/21 07:38:46;;;;;;;22.93;16.73;;;11.20;74.20;;;;;;5073731;28;20024;-71
2021/04/21 07:41:51;;;;;;;26.95;17.60;;;11.20;74.00;;;;;;5063577;28;20036;-71
2021/04/21 07:44:30;;;;;;;27.98;16.80;;;11.30;73.90;;;;;;5060011;28;20064;-71
2021/04/21 07:47:07;;;;;;;25.70;16.13;;;11.40;73.70;;;;;;5073619;28;20037;-72
2021/04/21 07:49:44;;;;;;;22.57;16.33;;;11.60;73.50;;;;;;5073602;28;20020;-71
2021/04/21 07:52:21;;;;;;;27.80;16.60;;;11.60;73.40;;;;;;5039405;28;20468;-71
2021/04/21 07:54:47;;;;;;;26.77;17.50;;;11.60;72.80;;;;;;5055044;28;20039;-71
2021/04/21 07:57:18;;;;;;;23.57;17.67;;;11.70;72.70;;;;;;5073306;28;20480;-71
2021/04/21 07:59:46;;;;;;;28.50;18.57;;;11.80;71.70;;;;;;5073488;28;20051;-72
2021/04/21 08:02:13;;;;;;;23.27;16.57;;;11.90;71.50;;;;;;5055935;28;20127;-72
2021/04/21 08:05:09;;;;;;;24.40;17.53;;;11.90;71.50;;;;;;5073627;28;20041;-71
2021/04/21 08:07:41;;;;;;;27.40;16.02;;;12.00;71.40;;;;;;5071562;28;20045;-71
2021/04/21 08:10:28;;;;;;;27.57;16.43;;;12.10;71.30;;;;;;5073047;28;20610;-71
2021/04/21 08:12:59;;;;;;;22.23;15.00;;;12.10;70.80;;;;;;5054790;28;20217;-69
2021/04/21 08:15:39;;;;;;;24.58;15.00;;;12.20;70.50;;;;;;5073314;28;20111;-71
2021/04/21 08:18:08;;;;;;;22.52;14.63;;;12.30;70.00;;;;;;5055322;28;20020;-72
2021/04/21 08:20:51;;;;;;;19.97;14.30;;;12.40;69.60;;;;;;5073324;28;20060;-71
2021/04/21 08:23:18;;;;;;;18.45;13.63;;;12.40;69.20;;;;;;5055232;28;20031;-71
2021/04/21 08:25:44;;;;;;;21.52;14.20;;;12.50;68.70;;;;;;5055162;28;20021;-72
2021/04/21 08:28:09;;;;;;;17.05;12.27;;;12.60;68.10;;;;;;5055055;28;20044;-71
2021/04/21 08:30:35;;;;;;;19.60;12.20;;;12.70;67.90;;;;;;5055370;28;20031;-73
2021/04/21 08:33:01;;;;;;;18.42;12.68;;;12.80;67.10;;;;;;5073939;28;20032;-72
2021/04/21 08:35:27;;;;;;;22.15;12.82;;;12.90;66.40;;;;;;5042683;28;20025;-71
2021/04/21 08:37:52;;;;;;;19.88;12.20;;;12.90;66.10;;;;;;5042390;28;20492;-72
2021/04/21 08:40:24;;;;;;;21.45;12.43;;;13.00;65.80;;;;;;5076779;28;20051;-72
2021/04/21 08:42:57;;;;;;;16.67;11.38;;;13.10;65.30;;;;;;5077021;28;20028;-72
2021/04/21 08:45:22;;;;;;;16.30;10.80;;;13.20;64.50;;;;;;5077196;28;20059;-71
2021/04/21 08:47:49;;;;;;;17.48;10.32;;;13.20;63.90;;;;;;5076848;28;20060;-72
2021/04/21 08:50:16;;;;;;;15.23;10.23;;;13.40;63.20;;;;;;5058521;28;20028;-71
2021/04/21 08:52:50;;;;;;;18.95;10.57;;;13.40;62.30;;;;;;5077257;28;20044;-72
2021/04/21 08:55:17;;;;;;;15.52;10.07;;;13.50;62.40;;;;;;5077191;28;20017;-71
2021/04/21 08:57:45;;;;;;;20.45;11.38;;;13.60;62.70;;;;;;5058071;28;20452;-71
2021/04/21 09:00:15;;;;;;;17.50;10.38;;;13.80;61.60;;;;;;5058777;28;20329;-72
2021/04/21 09:02:42;;;;;;;16.92;10.07;;;13.80;61.10;;;;;;5077023;28;20067;-71
2021/04/21 09:05:09;;;;;;;14.07;9.55;;;13.80;61.00;;;;;;5076628;28;20025;-72
2021/04/21 09:07:38;;;;;;;15.70;9.95;;;13.90;61.20;;;;;;5084359;28;20029;-72
2021/04/21 09:10:06;;;;;;;15.57;10.13;;;13.90;60.80;;;;;;5059930;28;20037;-72
2021/04/21 09:12:31;;;;;;;16.85;10.57;;;14.00;61.10;;;;;;5082998;28;20359;-73
2021/04/21 09:14:57;;;;;;;13.98;9.05;;;14.00;61.10;;;;;;5078437;28;20032;-73
2021/04/21 09:17:23;;;;;;;16.20;10.02;;;14.00;60.50;;;;;;5061752;28;20020;-74
2021/04/21 09:19:48;;;;;;;14.30;8.70;;;14.10;59.60;;;;;;5053181;28;20025;-72
2021/04/21 09:22:14;;;;;;;14.63;8.88;;;14.20;59.30;;;;;;5045886;28;20047;-72
2021/04/21 09:24:41;;;;;;;12.18;8.27;;;14.30;59.60;;;;;;5038458;28;20113;-72
2021/04/21 09:27:26;;;;;;;12.23;7.78;;;14.50;59.10;;;;;;5038145;28;20029;-72
2021/04/21 09:30:10;;;;;;;12.15;6.82;;;14.70;57.80;;;;;;5056117;28;20096;-72
2021/04/21 09:32:42;;;;;;;;;;;14.80;57.10;;;;;;5050506;28;20027;-73
2021/04/21 09:35:14;;;;;;;11.75;7.13;;;14.90;56.20;;;;;;5054493;28;19915;-72
2021/04/21 09:37:40;;;;;;;13.75;7.00;;;15.00;55.90;;;;;;5075786;28;20108;-73
2021/04/21 09:40:06;;;;;;;13.00;7.63;;;15.10;54.90;;;;;;5041431;28;20064;-72
2021/04/21 09:42:32;;;;;;;10.32;6.35;;;15.20;53.90;;;;;;5041752;28;20031;-73
2021/04/21 09:44:58;;;;;;;13.50;7.05;;;15.30;53.70;;;;;;5058101;28;20032;-73
2021/04/21 09:47:24;;;;;;;11.27;7.05;;;15.40;53.40;;;;;;5075915;28;20032;-71
2021/04/21 09:49:55;;;;;;;14.70;7.95;;;15.50;52.40;;;;;;5024048;28;20366;-71
2021/04/21 09:52:21;;;;;;;13.63;7.55;;;15.60;52.60;;;;;;5072097;28;20026;-70
2021/04/21 09:54:48;;;;;;;10.35;6.93;;;15.50;52.60;;;;;;5057524;28;20024;-70
2021/04/21 09:57:13;;;;;;;13.80;8.68;;;15.60;53.20;;;;;;5057426;28;20443;-71
2021/04/21 09:59:40;;;;;;;12.43;7.80;;;15.80;52.60;;;;;;5075060;28;20083;-70
2021/04/21 10:02:29;;;;;;;19.38;7.30;;;15.90;52.50;;;;;;5057331;28;20384;-71
2021/04/21 10:04:55;;;;;;;11.93;7.03;;;16.00;52.60;;;;;;5075195;28;20035;-71
2021/04/21 10:07:20;;;;;;;11.70;7.15;;;16.20;52.70;;;;;;5075400;28;20033;-70
2021/04/21 10:09:58;;;;;;;15.18;7.57;;;16.30;52.00;;;;;;5093684;28;20036;-70
2021/04/21 10:12:28;;;;;;;11.40;7.05;;;16.50;51.60;;;;;;5095260;28;20101;-70
2021/04/21 10:15:11;;;;;;;13.93;8.00;;;16.60;51.20;;;;;;5072019;28;20070;-71
2021/04/21 10:17:39;;;;;;;14.93;6.80;;;16.90;50.40;;;;;;5070567;28;20058;-72
2021/04/21 10:20:08;;;;;;;13.43;7.90;;;17.10;50.10;;;;;;5077237;28;20039;-73
2021/04/21 10:22:34;;;;;;;13.68;8.40;;;17.40;49.70;;;;;;5062589;28;20484;-72
2021/04/21 10:25:00;;;;;;;13.23;7.25;;;17.60;49.00;;;;;;5082103;28;20032;-76
2021/04/21 10:27:26;;;;;;;13.73;8.82;;;17.90;48.30;;;;;;5063914;28;20066;-72
2021/04/21 10:29:53;;;;;;;12.30;8.15;;;18.20;47.70;;;;;;5065267;28;20030;-73
2021/04/21 10:32:19;;;;;;;14.88;8.63;;;18.40;47.40;;;;;;5077516;28;20426;-71
2021/04/21 10:34:46;;;;;;;11.70;7.72;;;18.80;47.30;;;;;;5057442;28;20413;-73
2021/04/21 10:37:15;;;;;;;15.00;8.90;;;19.20;46.90;;;;;;5056626;28;20029;-73
2021/04/21 10:39:42;;;;;;;11.73;8.13;;;19.60;46.50;;;;;;5074928;28;20029;-72
2021/04/21 10:42:17;;;;;;;10.55;7.45;;;20.10;46.20;;;;;;5057460;28;20025;-72
2021/04/21 10:44:45;;;;;;;12.02;7.60;;;20.70;45.90;;;;;;5074776;28;20058;-72
2021/04/21 10:47:16;;;;;;;11.50;7.85;;;21.20;45.50;;;;;;5074414;28;20067;-72
2021/04/21 10:49:56;;;;;;;11.45;7.93;;;21.80;44.00;;;;;;5074656;28;20032;-72
2021/04/21 10:52:28;;;;;;;14.98;8.00;;;22.50;43.10;;;;;;5074423;28;20020;-73
2021/04/21 10:55:14;;;;;;;11.43;8.00;;;23.00;42.20;;;;;;5082573;28;20124;-72
2021/04/21 10:58:06;;;;;;;12.27;8.40;;;23.50;42.20;;;;;;5074718;28;20527;-73
2021/04/21 11:00:35;;;;;;;16.52;9.52;;;24.10;41.10;;;;;;5094345;28;20028;-73
2021/04/21 11:03:03;;;;;;;15.15;10.45;;;24.50;40.60;;;;;;5058946;28;20452;-74
2021/04/21 11:05:44;;;;;;;12.55;9.02;;;24.70;39.00;;;;;;5074339;28;20525;-72
2021/04/21 11:08:16;;;;;;;12.25;8.45;;;24.80;39.00;;;;;;5058607;28;20020;-73
2021/04/21 11:11:05;;;;;;;12.93;9.30;;;25.00;38.70;;;;;;5076773;28;20021;-73
2021/04/21 11:13:44;;;;;;;13.63;8.93;;;25.40;38.30;;;;;;5074051;28;20357;-73
2021/04/21 11:16:31;;;;;;;11.82;8.88;;;25.30;37.60;;;;;;5058219;28;20024;-72
2021/04/21 11:19:18;;;;;;;12.52;8.27;;;25.40;37.40;;;;;;5087809;28;20032;-74
2021/04/21 11:21:48;;;;;;;14.20;8.75;;;25.50;36.50;;;;;;5081765;28;20024;-73
2021/04/21 11:24:15;;;;;;;12.73;7.72;;;25.40;37.40;;;;;;5077260;28;20024;-74
2021/04/21 11:26:46;;;;;;;14.30;7.43;;;25.20;36.70;;;;;;5055987;28;20059;-74
2021/04/21 11:29:27;;;;;;;10.48;7.68;;;24.90;36.70;;;;;;5074152;28;20086;-73
2021/04/21 11:31:52;;;;;;;9.30;6.65;;;24.80;36.90;;;;;;5073856;28;20043;-74
2021/04/21 11:34:25;;;;;;;12.80;7.43;;;24.90;37.10;;;;;;5073663;28;20024;-73
2021/04/21 11:37:03;;;;;;;11.95;7.35;;;24.90;36.90;;;;;;5073628;28;20020;-73
2021/04/21 11:39:44;;;;;;;12.35;6.63;;;24.90;36.50;;;;;;5055454;28;20106;-74
2021/04/21 11:42:28;;;;;;;12.85;7.28;;;24.90;36.50;;;;;;5059693;28;20111;-73
2021/04/21 11:45:03;;;;;;;9.48;6.25;;;25.00;36.10;;;;;;5073430;28;20086;-73
2021/04/21 11:47:32;;;;;;;9.88;6.20;;;25.00;36.00;;;;;;5075162;28;20032;-73
2021/04/21 11:50:04;;;;;;;12.68;6.68;;;25.00;35.80;;;;;;5075532;28;20028;-74
2021/04/21 11:52:43;;;;;;;13.55;7.90;;;25.00;35.50;;;;;;5074915;28;20115;-74
2021/04/21 11:55:10;;;;;;;8.95;5.88;;;25.00;35.50;;;;;;5092619;28;20024;-72
2021/04/21 11:57:38;;;;;;;11.18;7.15;;;24.90;35.60;;;;;;5062998;28;20033;-75
2021/04/21 12:00:08;;;;;;;11.32;7.72;;;24.90;35.60;;;;;;5055280;28;20045;-74
2021/04/21 12:02:34;;;;;;;13.27;6.63;;;24.80;35.50;;;;;;5055353;28;20333;-73
2021/04/21 12:05:01;;;;;;;12.20;6.55;;;24.70;35.60;;;;;;5075372;28;20154;-77
2021/04/21 12:07:27;;;;;;;12.23;9.02;;;24.40;36.10;;;;;;5079387;28;20137;-78
2021/04/21 12:09:53;;;;;;;14.20;10.00;;;24.10;37.20;;;;;;5055744;28;20495;-79
2021/04/21 12:12:25;;;;;;;14.63;9.20;;;23.80;38.10;;;;;;5044261;28;20464;-72
2021/04/21 12:15:06;;;;;;;13.43;9.07;;;23.50;39.00;;;;;;5057503;28;20020;-75
2021/04/21 12:17:32;;;;;;;16.40;9.23;;;23.20;39.70;;;;;;5019400;28;20049;-74
2021/04/21 12:19:59;;;;;;;13.35;9.68;;;22.90;40.10;;;;;;5068418;28;20436;-75
2021/04/21 12:22:42;;;;;;;14.80;10.65;;;22.70;40.50;;;;;;5055084;28;20036;-75
2021/04/21 12:25:09;;;;;;;12.48;8.90;;;22.40;40.80;;;;;;5038984;28;20021;-75
2021/04/21 12:27:35;;;;;;;15.07;8.93;;;22.30;41.20;;;;;;5069077;28;20039;-75
2021/04/21 12:30:12;;;;;;;13.52;8.48;;;22.30;41.50;;;;;;5086189;28;20035;-74
2021/04/21 12:32:38;;;;;;;14.68;9.00;;;22.50;41.70;;;;;;5059108;28;20032;-77
2021/04/21 12:35:07;;;;;;;13.48;9.02;;;22.80;41.60;;;;;;5087388;28;20029;-73
2021/04/21 12:37:32;;;;;;;14.40;8.98;;;22.90;41.20;;;;;;5075333;28;20039;-72
2021/04/21 12:39:58;;;;;;;16.85;8.30;;;22.90;41.10;;;;;;5055027;28;20116;-72
2021/04/21 12:42:24;;;;;;;13.27;7.05;;;22.90;41.00;;;;;;5073194;28;20025;-73
2021/04/21 12:44:50;;;;;;;9.75;6.13;;;23.00;41.10;;;;;;5073255;28;20082;-73
2021/04/21 12:47:15;;;;;;;10.52;5.90;;;23.00;41.00;;;;;;5054688;28;20029;-74
2021/04/21 12:49:43;;;;;;;9.15;5.82;;;23.30;40.90;;;;;;5053587;28;20035;-72
2021/04/21 12:52:12;;;;;;;9.48;5.97;;;23.30;40.50;;;;;;5062038;28;20483;-73
2021/04/21 12:54:48;;;;;;;10.02;4.68;;;23.40;40.60;;;;;;5072287;28;20376;-77
2021/04/21 12:57:24;;;;;;;8.50;4.47;;;23.40;40.50;;;;;;5038292;28;20058;-79
2021/04/21 12:59:52;;;;;;;8.57;4.30;;;23.30;40.60;;;;;;5074955;28;21392;-79
2021/04/21 13:02:40;;;;;;;10.35;3.72;;;23.20;40.90;;;;;;5054924;28;20074;-80
2021/04/21 13:05:06;;;;;;;4.68;3.08;;;23.20;41.00;;;;;;5072806;28;20032;-78
2021/04/21 13:07:32;;;;;;;7.15;3.08;;;23.20;41.20;;;;;;5072794;28;20100;-78